sensor_id;sensor_type;location;lat;lon;timestamp;temperature;humidity
1165;DHT22;571;50.930;6.926;2022-12-19T03:47:20;2.30;99.90
1165;DHT22;571;50.930;6.926;2022-12-19T03:49:51;2.30;99.90
1165;DHT22;571;50.930;6.926;2022-12-19T03:52:33;2.30;99.90
1165;DHT22;571;50.930;6.926;2022-12-19T03:55:07;2.30;99.90
1165;DHT22;571;50.930;6.926;2022-12-19T03:57:41;2.30;99.90
1165;DHT22;571;50.930;6.926;2022-12-19T04:00:11;2.30;99.90
1165;DHT22;571;50.930;6.926;2022-12-19T04:02:43;2.40;99.90
1165;DHT22;571;50.930;6.926;2022-12-19T04:05:14;2.40;99.90
1165;DHT22;571;50.930;6.926;2022-12-19T04:07:43;2.40;99.90
1165;DHT22;571;50.930;6.926;2022-12-19T04:10:13;2.40;99.90
1165;DHT22;571;50.930;6.926;2022-12-19T04:12:45;2.40;99.90
1165;DHT22;571;50.930;6.926;2022-12-19T04:15:13;2.40;99.90
1165;DHT22;571;50.930;6.926;2022-12-19T04:17:46;2.40;99.90
1165;DHT22;571;50.930;6.926;2022-12-19T04:20:15;2.40;99.90
1165;DHT22;571;50.930;6.926;2022-12-19T04:22:48;2.40;99.90
1165;DHT22;571;50.930;6.926;2022-12-19T04:25:20;2.50;99.90
1165;DHT22;571;50.930;6.926;2022-12-19T04:27:51;2.50;99.90
1165;DHT22;571;50.930;6.926;2022-12-19T04:30:19;2.50;99.90
1165;DHT22;571;50.930;6.926;2022-12-19T04:32:49;2.50;99.90
1165;DHT22;571;50.930;6.926;2022-12-19T04:35:16;2.50;99.90
1165;DHT22;571;50.930;6.926;2022-12-19T04:37:43;2.50;99.90
1165;DHT22;571;50.930;6.926;2022-12-19T04:40:11;2.50;99.90
1165;DHT22;571;50.930;6.926;2022-12-19T04:42:38;2.60;99.90
1165;DHT22;571;50.930;6.926;2022-12-19T04:45:05;2.50;99.90
1165;DHT22;571;50.930;6.926;2022-12-19T04:47:32;2.50;99.90
1165;DHT22;571;50.930;6.926;2022-12-19T04:50:00;2.50;99.90
1165;DHT22;571;50.930;6.926;2022-12-19T04:52:27;2.60;99.90
1165;DHT22;571;50.930;6.926;2022-12-19T04:54:54;2.50;99.90
1165;DHT22;571;50.930;6.926;2022-12-19T04:57:21;2.50;99.90
1165;DHT22;571;50.930;6.926;2022-12-19T04:59:48;2.60;99.90
1165;DHT22;571;50.930;6.926;2022-12-19T05:02:15;2.60;99.90
1165;DHT22;571;50.930;6.926;2022-12-19T05:04:42;2.60;99.90
1165;DHT22;571;50.930;6.926;2022-12-19T05:07:11;2.60;99.90
1165;DHT22;571;50.930;6.926;2022-12-19T05:09:38;2.60;99.90
1165;DHT22;571;50.930;6.926;2022-12-19T05:12:06;2.70;99.90
1165;DHT22;571;50.930;6.926;2022-12-19T05:14:34;2.70;99.90
1165;DHT22;571;50.930;6.926;2022-12-19T05:17:01;2.70;99.90
1165;DHT22;571;50.930;6.926;2022-12-19T05:19:28;2.70;99.90
1165;DHT22;571;50.930;6.926;2022-12-19T05:21:55;2.70;99.90
1165;DHT22;571;50.930;6.926;2022-12-19T05:24:23;2.70;99.90
1165;DHT22;571;50.930;6.926;2022-12-19T05:26:53;2.70;99.90
1165;DHT22;571;50.930;6.926;2022-12-19T05:29:19;2.80;99.90
1165;DHT22;571;50.930;6.926;2022-12-19T05:31:46;2.90;99.90
1165;DHT22;571;50.930;6.926;2022-12-19T05:34:13;2.90;99.90
1165;DHT22;571;50.930;6.926;2022-12-19T05:36:40;2.90;99.90
1165;DHT22;571;50.930;6.926;2022-12-19T05:39:07;2.90;99.90
1165;DHT22;571;50.930;6.926;2022-12-19T05:41:35;2.90;99.90
1165;DHT22;571;50.930;6.926;2022-12-19T05:44:02;2.90;99.90
1165;DHT22;571;50.930;6.926;2022-12-19T05:46:29;3.00;99.90
1165;DHT22;571;50.930;6.926;2022-12-19T05:48:55;3.00;99.90
1165;DHT22;571;50.930;6.926;2022-12-19T05:51:23;2.90;99.90
1165;DHT22;571;50.930;6.926;2022-12-19T05:53:50;2.90;99.90
1165;DHT22;571;50.930;6.926;2022-12-19T05:56:19;2.90;99.90
1165;DHT22;571;50.930;6.926;2022-12-19T05:58:48;3.00;99.90
1165;DHT22;571;50.930;6.926;2022-12-19T06:01:17;3.00;99.90
1165;DHT22;571;50.930;6.926;2022-12-19T06:03:44;3.00;99.90
1165;DHT22;571;50.930;6.926;2022-12-19T06:06:12;3.10;99.90
1165;DHT22;571;50.930;6.926;2022-12-19T06:08:40;3.10;99.90
1165;DHT22;571;50.930;6.926;2022-12-19T06:11:07;3.10;99.90
1165;DHT22;571;50.930;6.926;2022-12-19T06:13:35;3.20;99.90
1165;DHT22;571;50.930;6.926;2022-12-19T06:16:06;3.20;99.90
1165;DHT22;571;50.930;6.926;2022-12-19T06:18:33;3.20;99.90
1165;DHT22;571;50.930;6.926;2022-12-19T06:21:01;3.30;99.90
1165;DHT22;571;50.930;6.926;2022-12-19T06:23:29;3.30;99.90
1165;DHT22;571;50.930;6.926;2022-12-19T06:25:57;3.30;99.90
1165;DHT22;571;50.930;6.926;2022-12-19T06:28:26;3.30;99.90
1165;DHT22;571;50.930;6.926;2022-12-19T06:30:57;3.30;99.90
1165;DHT22;571;50.930;6.926;2022-12-19T06:33:29;3.40;99.90
1165;DHT22;571;50.930;6.926;2022-12-19T06:35:57;3.50;99.90
1165;DHT22;571;50.930;6.926;2022-12-19T06:38:24;3.50;99.90
1165;DHT22;571;50.930;6.926;2022-12-19T06:40:51;3.50;99.90
1165;DHT22;571;50.930;6.926;2022-12-19T06:43:35;3.40;99.90
1165;DHT22;571;50.930;6.926;2022-12-19T06:46:02;3.50;99.90
1165;DHT22;571;50.930;6.926;2022-12-19T06:48:32;3.50;99.90
1165;DHT22;571;50.930;6.926;2022-12-19T06:51:02;3.50;99.90
1165;DHT22;571;50.930;6.926;2022-12-19T06:53:29;3.40;99.90
1165;DHT22;571;50.930;6.926;2022-12-19T06:55:58;3.50;99.90
1165;DHT22;571;50.930;6.926;2022-12-19T06:58:34;3.50;99.90
1165;DHT22;571;50.930;6.926;2022-12-19T07:01:39;3.60;99.90
1165;DHT22;571;50.930;6.926;2022-12-19T07:04:36;3.60;99.90
1165;DHT22;571;50.930;6.926;2022-12-19T07:07:31;3.60;99.90
1165;DHT22;571;50.930;6.926;2022-12-19T07:10:30;3.60;99.90
1165;DHT22;571;50.930;6.926;2022-12-19T07:13:13;3.60;99.90
1165;DHT22;571;50.930;6.926;2022-12-19T07:16:47;3.60;99.90
1165;DHT22;571;50.930;6.926;2022-12-19T07:22:15;3.60;99.90
1165;DHT22;571;50.930;6.926;2022-12-19T07:24:42;3.60;99.90
1165;DHT22;571;50.930;6.926;2022-12-19T07:27:30;3.60;99.90
1165;DHT22;571;50.930;6.926;2022-12-19T07:30:14;3.60;99.90
1165;DHT22;571;50.930;6.926;2022-12-19T07:32:59;3.60;99.90
1165;DHT22;571;50.930;6.926;2022-12-19T07:35:38;3.60;99.90
1165;DHT22;571;50.930;6.926;2022-12-19T07:38:06;3.70;99.90
1165;DHT22;571;50.930;6.926;2022-12-19T07:40:35;3.80;99.90
1165;DHT22;571;50.930;6.926;2022-12-19T07:43:04;3.70;99.90
1165;DHT22;571;50.930;6.926;2022-12-19T07:45:35;3.70;99.90
1165;DHT22;571;50.930;6.926;2022-12-19T07:48:04;3.80;99.90
1165;DHT22;571;50.930;6.926;2022-12-19T07:50:32;3.80;99.90
1165;DHT22;571;50.930;6.926;2022-12-19T07:53:01;3.80;99.90
1165;DHT22;571;50.930;6.926;2022-12-19T07:55:29;3.70;99.90
1165;DHT22;571;50.930;6.926;2022-12-19T07:57:56;3.70;99.90
1165;DHT22;571;50.930;6.926;2022-12-19T08:00:38;3.80;99.90
1165;DHT22;571;50.930;6.926;2022-12-19T08:03:05;3.70;99.90
1165;DHT22;571;50.930;6.926;2022-12-19T08:05:32;3.80;99.90
1165;DHT22;571;50.930;6.926;2022-12-19T08:08:03;3.80;99.90
1165;DHT22;571;50.930;6.926;2022-12-19T08:10:31;3.90;99.90
1165;DHT22;571;50.930;6.926;2022-12-19T08:13:01;4.00;99.90
1165;DHT22;571;50.930;6.926;2022-12-19T08:15:34;3.90;99.90
1165;DHT22;571;50.930;6.926;2022-12-19T08:18:08;3.90;99.90
1165;DHT22;571;50.930;6.926;2022-12-19T08:20:35;3.90;99.90
1165;DHT22;571;50.930;6.926;2022-12-19T08:23:01;4.00;99.90
1165;DHT22;571;50.930;6.926;2022-12-19T08:25:28;4.00;99.90
1165;DHT22;571;50.930;6.926;2022-12-19T08:27:57;4.00;99.90
1165;DHT22;571;50.930;6.926;2022-12-19T08:30:38;4.00;99.90
1165;DHT22;571;50.930;6.926;2022-12-19T08:33:06;4.10;99.90
1165;DHT22;571;50.930;6.926;2022-12-19T08:35:34;4.10;99.90
1165;DHT22;571;50.930;6.926;2022-12-19T08:38:07;4.10;99.90
1165;DHT22;571;50.930;6.926;2022-12-19T08:41:11;4.20;99.90
1165;DHT22;571;50.930;6.926;2022-12-19T08:43:37;4.20;99.90
1165;DHT22;571;50.930;6.926;2022-12-19T08:46:05;4.30;99.90
1165;DHT22;571;50.930;6.926;2022-12-19T08:48:52;4.30;99.90
1165;DHT22;571;50.930;6.926;2022-12-19T08:51:22;4.30;99.90
1165;DHT22;571;50.930;6.926;2022-12-19T08:53:48;4.30;99.90
1165;DHT22;571;50.930;6.926;2022-12-19T08:56:18;4.30;99.90
1165;DHT22;571;50.930;6.926;2022-12-19T08:58:50;4.40;99.90
1165;DHT22;571;50.930;6.926;2022-12-19T09:01:31;4.40;99.90
1165;DHT22;571;50.930;6.926;2022-12-19T09:03:58;4.40;99.90
1165;DHT22;571;50.930;6.926;2022-12-19T09:06:26;4.40;99.90
1165;DHT22;571;50.930;6.926;2022-12-19T09:08:52;4.40;99.90
1165;DHT22;571;50.930;6.926;2022-12-19T09:11:19;4.50;99.90
1165;DHT22;571;50.930;6.926;2022-12-19T09:13:48;4.50;99.90
1165;DHT22;571;50.930;6.926;2022-12-19T09:16:38;4.50;99.90
1165;DHT22;571;50.930;6.926;2022-12-19T09:19:18;4.50;99.90
1165;DHT22;571;50.930;6.926;2022-12-19T09:21:56;4.50;99.90
1165;DHT22;571;50.930;6.926;2022-12-19T09:30:02;4.70;99.90
1165;DHT22;571;50.930;6.926;2022-12-19T09:32:29;4.70;99.90
1165;DHT22;571;50.930;6.926;2022-12-19T09:34:56;4.70;99.90
1165;DHT22;571;50.930;6.926;2022-12-19T09:37:23;4.60;99.90
1165;DHT22;571;50.930;6.926;2022-12-19T09:39:50;4.60;99.90
1165;DHT22;571;50.930;6.926;2022-12-19T09:42:28;4.70;99.90
1165;DHT22;571;50.930;6.926;2022-12-19T09:45:18;4.70;99.90
1165;DHT22;571;50.930;6.926;2022-12-19T09:47:47;4.70;99.90
1165;DHT22;571;50.930;6.926;2022-12-19T09:50:25;4.70;99.90
1165;DHT22;571;50.930;6.926;2022-12-19T09:52:57;4.70;99.90
1165;DHT22;571;50.930;6.926;2022-12-19T09:55:41;4.60;99.90
1165;DHT22;571;50.930;6.926;2022-12-19T09:58:12;4.70;99.90
1165;DHT22;571;50.930;6.926;2022-12-19T10:00:48;4.70;99.90
1165;DHT22;571;50.930;6.926;2022-12-19T10:03:25;4.70;99.90
1165;DHT22;571;50.930;6.926;2022-12-19T10:09:49;4.80;99.90
1165;DHT22;571;50.930;6.926;2022-12-19T10:12:39;4.70;99.90
1165;DHT22;571;50.930;6.926;2022-12-19T10:15:25;4.70;99.90
1165;DHT22;571;50.930;6.926;2022-12-19T10:21:48;4.70;99.90
1165;DHT22;571;50.930;6.926;2022-12-19T10:24:43;4.70;99.90
1165;DHT22;571;50.930;6.926;2022-12-19T10:27:24;4.80;99.90
1165;DHT22;571;50.930;6.926;2022-12-19T10:30:02;4.80;99.90
1165;DHT22;571;50.930;6.926;2022-12-19T10:32:41;4.80;99.90
1165;DHT22;571;50.930;6.926;2022-12-19T10:38:22;4.70;99.90
1165;DHT22;571;50.930;6.926;2022-12-19T10:40:54;4.70;99.90
1165;DHT22;571;50.930;6.926;2022-12-19T10:43:33;4.70;99.90
1165;DHT22;571;50.930;6.926;2022-12-19T10:46:22;4.80;99.90
1165;DHT22;571;50.930;6.926;2022-12-19T10:48:50;4.80;99.90
1165;DHT22;571;50.930;6.926;2022-12-19T10:51:23;4.90;99.90
1165;DHT22;571;50.930;6.926;2022-12-19T10:53:54;5.00;99.90
1165;DHT22;571;50.930;6.926;2022-12-19T10:56:23;5.00;99.90
1165;DHT22;571;50.930;6.926;2022-12-19T10:58:51;5.10;99.90
1165;DHT22;571;50.930;6.926;2022-12-19T11:01:24;5.10;99.90
1165;DHT22;571;50.930;6.926;2022-12-19T11:03:52;5.10;99.90
1165;DHT22;571;50.930;6.926;2022-12-19T11:06:46;5.20;99.90
1165;DHT22;571;50.930;6.926;2022-12-19T11:09:23;5.20;99.90
1165;DHT22;571;50.930;6.926;2022-12-19T11:12:00;5.30;99.90
1165;DHT22;571;50.930;6.926;2022-12-19T11:14:29;5.30;99.90
1165;DHT22;571;50.930;6.926;2022-12-19T11:16:56;5.30;99.90
1165;DHT22;571;50.930;6.926;2022-12-19T11:19:38;5.30;99.90
1165;DHT22;571;50.930;6.926;2022-12-19T11:22:20;5.30;99.90
1165;DHT22;571;50.930;6.926;2022-12-19T11:24:49;5.30;99.90
1165;DHT22;571;50.930;6.926;2022-12-19T11:27:36;5.40;99.90
1165;DHT22;571;50.930;6.926;2022-12-19T11:30:21;5.30;99.90
1165;DHT22;571;50.930;6.926;2022-12-19T11:33:08;5.30;99.90
1165;DHT22;571;50.930;6.926;2022-12-19T11:35:46;5.50;99.90
1165;DHT22;571;50.930;6.926;2022-12-19T11:38:17;5.40;99.90
1165;DHT22;571;50.930;6.926;2022-12-19T11:40:52;5.40;99.90
1165;DHT22;571;50.930;6.926;2022-12-19T11:43:28;5.50;99.90
1165;DHT22;571;50.930;6.926;2022-12-19T11:46:11;5.60;99.90
1165;DHT22;571;50.930;6.926;2022-12-19T11:48:44;5.60;99.90
1165;DHT22;571;50.930;6.926;2022-12-19T11:51:17;5.60;99.90
1165;DHT22;571;50.930;6.926;2022-12-19T11:54:15;5.80;99.90
1165;DHT22;571;50.930;6.926;2022-12-19T11:57:10;5.70;99.90
1165;DHT22;571;50.930;6.926;2022-12-19T11:59:42;5.80;99.90
1165;DHT22;571;50.930;6.926;2022-12-19T12:02:38;5.70;99.90
1165;DHT22;571;50.930;6.926;2022-12-19T12:08:38;5.70;99.90
1165;DHT22;571;50.930;6.926;2022-12-19T12:11:25;5.70;99.90
1165;DHT22;571;50.930;6.926;2022-12-19T12:14:13;5.70;99.90
1165;DHT22;571;50.930;6.926;2022-12-19T12:16:54;5.80;99.90
1165;DHT22;571;50.930;6.926;2022-12-19T12:19:35;5.80;99.90
1165;DHT22;571;50.930;6.926;2022-12-19T12:22:14;5.80;99.90
1165;DHT22;571;50.930;6.926;2022-12-19T12:24:48;5.80;99.90
1165;DHT22;571;50.930;6.926;2022-12-19T12:27:32;5.80;99.90
1165;DHT22;571;50.930;6.926;2022-12-19T12:30:07;5.90;99.90
1165;DHT22;571;50.930;6.926;2022-12-19T12:32:47;5.90;99.90
1165;DHT22;571;50.930;6.926;2022-12-19T12:35:32;5.90;99.90
1165;DHT22;571;50.930;6.926;2022-12-19T12:38:16;5.90;99.90
1165;DHT22;571;50.930;6.926;2022-12-19T12:41:08;6.00;99.90
1165;DHT22;571;50.930;6.926;2022-12-19T12:43:57;6.10;99.90
1165;DHT22;571;50.930;6.926;2022-12-19T12:46:32;6.10;99.90
1165;DHT22;571;50.930;6.926;2022-12-19T12:49:20;6.10;99.90
1165;DHT22;571;50.930;6.926;2022-12-19T12:51:48;6.20;99.90
1165;DHT22;571;50.930;6.926;2022-12-19T12:54:16;6.20;99.90
1165;DHT22;571;50.930;6.926;2022-12-19T12:56:44;6.20;99.90
1165;DHT22;571;50.930;6.926;2022-12-19T12:59:22;6.30;99.90
1165;DHT22;571;50.930;6.926;2022-12-19T13:01:52;6.20;99.90
1165;DHT22;571;50.930;6.926;2022-12-19T13:04:25;6.10;99.90
1165;DHT22;571;50.930;6.926;2022-12-19T13:07:15;6.20;99.90
1165;DHT22;571;50.930;6.926;2022-12-19T13:09:52;6.30;99.90
1165;DHT22;571;50.930;6.926;2022-12-19T13:12:25;6.30;99.90
1165;DHT22;571;50.930;6.926;2022-12-19T13:15:39;6.30;99.90
1165;DHT22;571;50.930;6.926;2022-12-19T13:21:01;6.30;99.90
1165;DHT22;571;50.930;6.926;2022-12-19T13:26:48;6.40;99.90
1165;DHT22;571;50.930;6.926;2022-12-19T13:29:29;6.40;99.90
1165;DHT22;571;50.930;6.926;2022-12-19T13:32:12;6.50;99.90
1165;DHT22;571;50.930;6.926;2022-12-19T13:34:49;6.50;99.90
1165;DHT22;571;50.930;6.926;2022-12-19T13:37:26;6.40;99.90
1165;DHT22;571;50.930;6.926;2022-12-19T13:40:11;6.40;99.90
1165;DHT22;571;50.930;6.926;2022-12-19T13:42:48;6.40;99.90
1165;DHT22;571;50.930;6.926;2022-12-19T13:45:34;6.40;99.90
1165;DHT22;571;50.930;6.926;2022-12-19T13:48:07;6.50;99.90
1165;DHT22;571;50.930;6.926;2022-12-19T13:50:38;6.40;99.90
1165;DHT22;571;50.930;6.926;2022-12-19T13:53:08;6.30;99.90
1165;DHT22;571;50.930;6.926;2022-12-19T13:55:39;6.30;99.90
1165;DHT22;571;50.930;6.926;2022-12-19T13:58:20;6.40;99.90
1165;DHT22;571;50.930;6.926;2022-12-19T14:00:47;6.50;99.90
1165;DHT22;571;50.930;6.926;2022-12-19T14:03:20;6.50;99.90
1165;DHT22;571;50.930;6.926;2022-12-19T14:05:48;6.50;99.90
1165;DHT22;571;50.930;6.926;2022-12-19T14:08:18;6.40;99.90
1165;DHT22;571;50.930;6.926;2022-12-19T14:10:47;6.40;99.90
1165;DHT22;571;50.930;6.926;2022-12-19T14:13:18;6.40;99.90
1165;DHT22;571;50.930;6.926;2022-12-19T14:16:13;6.40;99.90
1165;DHT22;571;50.930;6.926;2022-12-19T14:18:46;6.40;99.90
1165;DHT22;571;50.930;6.926;2022-12-19T14:21:16;6.30;99.90
1165;DHT22;571;50.930;6.926;2022-12-19T14:23:43;6.30;99.90
1165;DHT22;571;50.930;6.926;2022-12-19T14:26:22;6.30;99.90
1165;DHT22;571;50.930;6.926;2022-12-19T14:28:53;6.30;99.90
1165;DHT22;571;50.930;6.926;2022-12-19T14:31:21;6.30;99.90
1165;DHT22;571;50.930;6.926;2022-12-19T14:33:51;6.30;99.90
1165;DHT22;571;50.930;6.926;2022-12-19T14:36:20;6.30;99.90
1165;DHT22;571;50.930;6.926;2022-12-19T14:38:47;6.30;99.90
1165;DHT22;571;50.930;6.926;2022-12-19T14:41:29;6.30;99.90
1165;DHT22;571;50.930;6.926;2022-12-19T14:44:12;6.40;99.90
1165;DHT22;571;50.930;6.926;2022-12-19T14:46:43;6.40;99.90
1165;DHT22;571;50.930;6.926;2022-12-19T14:49:30;6.30;99.90
1165;DHT22;571;50.930;6.926;2022-12-19T14:51:57;6.30;99.90
1165;DHT22;571;50.930;6.926;2022-12-19T14:54:25;6.40;99.90
1165;DHT22;571;50.930;6.926;2022-12-19T14:56:54;6.30;99.90
1165;DHT22;571;50.930;6.926;2022-12-19T14:59:30;6.30;99.90
1165;DHT22;571;50.930;6.926;2022-12-19T15:02:03;6.40;99.90
1165;DHT22;571;50.930;6.926;2022-12-19T15:04:39;6.50;99.90
1165;DHT22;571;50.930;6.926;2022-12-19T15:07:12;6.50;99.90
1165;DHT22;571;50.930;6.926;2022-12-19T15:09:51;6.40;99.90
1165;DHT22;571;50.930;6.926;2022-12-19T15:12:28;6.40;99.90
1165;DHT22;571;50.930;6.926;2022-12-19T15:15:19;6.50;99.90
1165;DHT22;571;50.930;6.926;2022-12-19T15:17:48;6.50;99.90
1165;DHT22;571;50.930;6.926;2022-12-19T15:20:17;6.50;99.90
1165;DHT22;571;50.930;6.926;2022-12-19T15:22:44;6.60;99.90
1165;DHT22;571;50.930;6.926;2022-12-19T15:25:13;6.60;99.90
1165;DHT22;571;50.930;6.926;2022-12-19T15:27:42;6.60;99.90
1165;DHT22;571;50.930;6.926;2022-12-19T15:30:14;6.60;99.90
1165;DHT22;571;50.930;6.926;2022-12-19T15:32:42;6.70;99.90
1165;DHT22;571;50.930;6.926;2022-12-19T15:35:11;6.70;99.90
1165;DHT22;571;50.930;6.926;2022-12-19T15:37:40;6.60;99.90
1165;DHT22;571;50.930;6.926;2022-12-19T15:40:13;6.60;99.90
1165;DHT22;571;50.930;6.926;2022-12-19T15:42:41;6.60;99.90
1165;DHT22;571;50.930;6.926;2022-12-19T15:45:13;6.60;99.90
1165;DHT22;571;50.930;6.926;2022-12-19T15:47:41;6.60;99.90
1165;DHT22;571;50.930;6.926;2022-12-19T15:50:16;6.70;99.90
1165;DHT22;571;50.930;6.926;2022-12-19T15:52:47;6.70;99.90
1165;DHT22;571;50.930;6.926;2022-12-19T15:55:15;6.70;99.90
1165;DHT22;571;50.930;6.926;2022-12-19T15:57:45;6.70;99.90
1165;DHT22;571;50.930;6.926;2022-12-19T16:00:16;6.80;99.90
1165;DHT22;571;50.930;6.926;2022-12-19T16:02:44;6.70;99.90
1165;DHT22;571;50.930;6.926;2022-12-19T16:05:13;6.80;99.90
1165;DHT22;571;50.930;6.926;2022-12-19T16:07:40;6.80;99.90
1165;DHT22;571;50.930;6.926;2022-12-19T16:10:10;6.80;99.90
1165;DHT22;571;50.930;6.926;2022-12-19T16:12:46;6.80;99.90
1165;DHT22;571;50.930;6.926;2022-12-19T16:15:22;6.80;99.90
1165;DHT22;571;50.930;6.926;2022-12-19T16:17:51;6.80;99.90
1165;DHT22;571;50.930;6.926;2022-12-19T16:20:22;6.80;99.90
1165;DHT22;571;50.930;6.926;2022-12-19T16:22:58;6.80;99.90
1165;DHT22;571;50.930;6.926;2022-12-19T16:25:36;6.90;99.90
1165;DHT22;571;50.930;6.926;2022-12-19T16:28:05;6.90;99.90
1165;DHT22;571;50.930;6.926;2022-12-19T16:30:36;6.90;99.90
1165;DHT22;571;50.930;6.926;2022-12-19T16:33:17;6.90;99.90
1165;DHT22;571;50.930;6.926;2022-12-19T16:35:47;6.90;99.90
1165;DHT22;571;50.930;6.926;2022-12-19T16:38:14;6.90;99.90
1165;DHT22;571;50.930;6.926;2022-12-19T16:40:42;6.80;99.90
1165;DHT22;571;50.930;6.926;2022-12-19T16:43:13;6.90;99.90
1165;DHT22;571;50.930;6.926;2022-12-19T16:45:42;6.90;99.90
1165;DHT22;571;50.930;6.926;2022-12-19T16:48:19;6.90;99.90
1165;DHT22;571;50.930;6.926;2022-12-19T16:50:46;6.90;99.90
1165;DHT22;571;50.930;6.926;2022-12-19T16:53:13;7.00;99.90
1165;DHT22;571;50.930;6.926;2022-12-19T16:55:43;6.90;99.90
1165;DHT22;571;50.930;6.926;2022-12-19T16:58:13;6.90;99.90
1165;DHT22;571;50.930;6.926;2022-12-19T17:00:41;7.00;99.90
1165;DHT22;571;50.930;6.926;2022-12-19T17:05:37;7.00;99.90
1165;DHT22;571;50.930;6.926;2022-12-19T17:08:09;7.00;99.90
1165;DHT22;571;50.930;6.926;2022-12-19T17:10:37;7.10;99.90
1165;DHT22;571;50.930;6.926;2022-12-19T17:13:09;7.00;99.90
1165;DHT22;571;50.930;6.926;2022-12-19T17:15:37;6.90;99.90
1165;DHT22;571;50.930;6.926;2022-12-19T17:18:10;7.00;99.90
1165;DHT22;571;50.930;6.926;2022-12-19T17:20:40;7.00;99.90
1165;DHT22;571;50.930;6.926;2022-12-19T17:23:12;7.10;99.90
1165;DHT22;571;50.930;6.926;2022-12-19T17:25:40;7.10;99.90
1165;DHT22;571;50.930;6.926;2022-12-19T17:28:09;7.00;99.90
1165;DHT22;571;50.930;6.926;2022-12-19T17:30:36;7.10;99.90
1165;DHT22;571;50.930;6.926;2022-12-19T17:33:03;7.20;99.90
1165;DHT22;571;50.930;6.926;2022-12-19T17:35:33;7.10;99.90
1165;DHT22;571;50.930;6.926;2022-12-19T17:38:01;7.10;99.90
1165;DHT22;571;50.930;6.926;2022-12-19T17:40:30;7.20;99.90
1165;DHT22;571;50.930;6.926;2022-12-19T17:42:58;7.20;99.90
1165;DHT22;571;50.930;6.926;2022-12-19T17:45:27;7.20;99.90
1165;DHT22;571;50.930;6.926;2022-12-19T17:47:55;7.20;99.90
1165;DHT22;571;50.930;6.926;2022-12-19T17:50:26;7.30;99.90
1165;DHT22;571;50.930;6.926;2022-12-19T17:52:55;7.30;99.90
1165;DHT22;571;50.930;6.926;2022-12-19T17:55:23;7.30;99.90
1165;DHT22;571;50.930;6.926;2022-12-19T17:57:50;7.30;99.90
1165;DHT22;571;50.930;6.926;2022-12-19T18:00:19;7.40;99.90
1165;DHT22;571;50.930;6.926;2022-12-19T18:02:49;7.40;99.90
1165;DHT22;571;50.930;6.926;2022-12-19T18:05:18;7.40;99.90
1165;DHT22;571;50.930;6.926;2022-12-19T18:07:47;7.40;99.90
1165;DHT22;571;50.930;6.926;2022-12-19T18:10:15;7.40;99.90
1165;DHT22;571;50.930;6.926;2022-12-19T18:12:41;7.50;99.90
1165;DHT22;571;50.930;6.926;2022-12-19T18:15:09;7.40;99.90
1165;DHT22;571;50.930;6.926;2022-12-19T18:17:37;7.50;99.90
1165;DHT22;571;50.930;6.926;2022-12-19T18:20:17;7.50;99.90
1165;DHT22;571;50.930;6.926;2022-12-19T18:22:44;7.50;99.90
1165;DHT22;571;50.930;6.926;2022-12-19T18:25:16;7.50;99.90
1165;DHT22;571;50.930;6.926;2022-12-19T18:27:44;7.50;99.90
1165;DHT22;571;50.930;6.926;2022-12-19T18:30:13;7.50;99.90
1165;DHT22;571;50.930;6.926;2022-12-19T18:32:41;7.50;99.90
1165;DHT22;571;50.930;6.926;2022-12-19T18:35:16;7.50;99.90
1165;DHT22;571;50.930;6.926;2022-12-19T18:37:43;7.50;99.90
1165;DHT22;571;50.930;6.926;2022-12-19T18:40:15;7.50;99.90
1165;DHT22;571;50.930;6.926;2022-12-19T18:42:42;7.50;99.90
1165;DHT22;571;50.930;6.926;2022-12-19T18:45:13;7.50;99.90
1165;DHT22;571;50.930;6.926;2022-12-19T18:47:41;7.50;99.90
1165;DHT22;571;50.930;6.926;2022-12-19T18:50:15;7.50;99.90
1165;DHT22;571;50.930;6.926;2022-12-19T18:52:42;7.60;99.90
1165;DHT22;571;50.930;6.926;2022-12-19T18:55:14;7.60;99.90
1165;DHT22;571;50.930;6.926;2022-12-19T18:57:42;7.60;99.90
1165;DHT22;571;50.930;6.926;2022-12-19T19:00:10;7.70;99.90
1165;DHT22;571;50.930;6.926;2022-12-19T19:02:39;7.70;99.90
1165;DHT22;571;50.930;6.926;2022-12-19T19:05:14;7.70;99.90
1165;DHT22;571;50.930;6.926;2022-12-19T19:07:42;7.70;99.90
1165;DHT22;571;50.930;6.926;2022-12-19T19:10:23;7.80;99.90
1165;DHT22;571;50.930;6.926;2022-12-19T19:12:50;7.70;99.90
1165;DHT22;571;50.930;6.926;2022-12-19T19:15:18;7.80;99.90
1165;DHT22;571;50.930;6.926;2022-12-19T19:17:47;7.80;99.90
1165;DHT22;571;50.930;6.926;2022-12-19T19:20:17;7.80;99.90
1165;DHT22;571;50.930;6.926;2022-12-19T19:22:44;7.90;99.90
1165;DHT22;571;50.930;6.926;2022-12-19T19:25:12;7.90;99.90
1165;DHT22;571;50.930;6.926;2022-12-19T19:27:39;7.90;99.90
1165;DHT22;571;50.930;6.926;2022-12-19T19:30:08;7.90;99.90
1165;DHT22;571;50.930;6.926;2022-12-19T19:32:37;8.00;99.90
1165;DHT22;571;50.930;6.926;2022-12-19T19:35:06;8.00;99.90
1165;DHT22;571;50.930;6.926;2022-12-19T19:37:36;8.10;99.90
1165;DHT22;571;50.930;6.926;2022-12-19T19:40:04;8.10;99.90
1165;DHT22;571;50.930;6.926;2022-12-19T19:42:31;8.10;99.90
1165;DHT22;571;50.930;6.926;2022-12-19T19:44:58;8.20;99.90
1165;DHT22;571;50.930;6.926;2022-12-19T19:47:25;8.30;99.90
1165;DHT22;571;50.930;6.926;2022-12-19T19:49:54;8.30;99.90
1165;DHT22;571;50.930;6.926;2022-12-19T19:52:21;8.30;99.90
1165;DHT22;571;50.930;6.926;2022-12-19T19:54:52;8.30;99.90
1165;DHT22;571;50.930;6.926;2022-12-19T19:57:25;8.30;99.90
1165;DHT22;571;50.930;6.926;2022-12-19T19:59:52;8.30;99.90
1165;DHT22;571;50.930;6.926;2022-12-19T20:02:19;8.30;99.90
1165;DHT22;571;50.930;6.926;2022-12-19T20:04:47;8.30;99.90
1165;DHT22;571;50.930;6.926;2022-12-19T20:07:14;8.40;99.90
1165;DHT22;571;50.930;6.926;2022-12-19T20:09:42;8.40;99.90
1165;DHT22;571;50.930;6.926;2022-12-19T20:12:10;8.40;99.90
1165;DHT22;571;50.930;6.926;2022-12-19T20:14:38;8.50;99.90
1165;DHT22;571;50.930;6.926;2022-12-19T20:17:05;8.50;99.90
1165;DHT22;571;50.930;6.926;2022-12-19T20:19:31;8.60;99.90
1165;DHT22;571;50.930;6.926;2022-12-19T20:21:58;8.70;99.90
1165;DHT22;571;50.930;6.926;2022-12-19T20:24:25;8.70;99.90
1165;DHT22;571;50.930;6.926;2022-12-19T20:26:52;8.70;99.90
1165;DHT22;571;50.930;6.926;2022-12-19T20:29:20;8.70;99.90
1165;DHT22;571;50.930;6.926;2022-12-19T20:31:47;8.70;99.90
1165;DHT22;571;50.930;6.926;2022-12-19T20:34:14;8.70;99.90
1165;DHT22;571;50.930;6.926;2022-12-19T20:36:41;8.80;99.90
1165;DHT22;571;50.930;6.926;2022-12-19T20:39:08;8.80;99.90
1165;DHT22;571;50.930;6.926;2022-12-19T20:41:34;8.80;99.90
1165;DHT22;571;50.930;6.926;2022-12-19T20:44:01;8.80;99.90
1165;DHT22;571;50.930;6.926;2022-12-19T20:46:29;8.80;99.90
1165;DHT22;571;50.930;6.926;2022-12-19T20:48:56;8.90;99.90
1165;DHT22;571;50.930;6.926;2022-12-19T20:51:23;9.00;99.90
1165;DHT22;571;50.930;6.926;2022-12-19T20:53:51;9.10;99.90
1165;DHT22;571;50.930;6.926;2022-12-19T20:56:19;9.10;99.90
1165;DHT22;571;50.930;6.926;2022-12-19T20:58:47;9.10;99.90
1165;DHT22;571;50.930;6.926;2022-12-19T21:01:16;9.20;99.90
1165;DHT22;571;50.930;6.926;2022-12-19T21:03:45;9.20;99.90
1165;DHT22;571;50.930;6.926;2022-12-19T21:06:13;9.20;99.90
1165;DHT22;571;50.930;6.926;2022-12-19T21:08:40;9.40;99.90
1165;DHT22;571;50.930;6.926;2022-12-19T21:11:08;9.40;99.90
1165;DHT22;571;50.930;6.926;2022-12-19T21:13:35;9.40;99.90
1165;DHT22;571;50.930;6.926;2022-12-19T21:16:04;9.40;99.90
1165;DHT22;571;50.930;6.926;2022-12-19T21:18:33;9.40;99.90
1165;DHT22;571;50.930;6.926;2022-12-19T21:21:02;9.40;99.90
1165;DHT22;571;50.930;6.926;2022-12-19T21:23:29;9.40;99.90
1165;DHT22;571;50.930;6.926;2022-12-19T21:25:56;9.50;99.90